Elm Grove, Wisconsin
Current Conditions -  °F | °C
As of 9:45 AM on Thursday 29 Jan 2015 (Local Time) from KMWC Reporting Station
Overcast Overcast  
Wind Chill: -7°   Ceiling: 1700
Heat Index: -1°   Visibility: 7mi
Dew Point: -4°   Wind: 15mph
Humidity: 80%   Direction: 330°NNW
Pressure: 29.88"   Gusts: 22mph
Location:  43.05°N, 88.08°W
Report Text: KMWC 291545Z AUTO 33013G19KT 7SM OVC017 M01/M04 A2988
Loading
Personal Weather Stations






























Interactive Weather Map New forecast layout! Learn more

10-Day Weather Forecast

Advertisements
Track Severe Weather on mobile